createdAt,value
2018-06-15T00:00:00.147Z,17.03
2018-06-15T00:02:31.393Z,17.01
2018-06-15T00:04:59.467Z,17.01
2018-06-15T00:07:28.385Z,16.98
2018-06-15T00:09:57.116Z,17.00
2018-06-15T00:12:25.616Z,17.01
2018-06-15T00:14:53.780Z,16.69
2018-06-15T00:17:22.179Z,17.00
2018-06-15T00:19:50.234Z,16.99
2018-06-15T00:22:18.767Z,16.14
2018-06-15T00:24:47.416Z,16.98
2018-06-15T00:27:16.079Z,16.96
2018-06-15T00:29:44.804Z,16.95
2018-06-15T00:32:13.474Z,16.93
2018-06-15T00:34:41.871Z,16.89
2018-06-15T00:37:10.613Z,16.89
2018-06-15T00:39:38.644Z,16.88
2018-06-15T00:42:06.919Z,16.87
2018-06-15T00:44:35.481Z,16.86
2018-06-15T00:47:04.193Z,16.84
2018-06-15T00:49:32.730Z,16.83
2018-06-15T00:52:01.539Z,16.82
2018-06-15T00:54:29.906Z,16.83
2018-06-15T00:58:06.959Z,16.84
2018-06-15T01:00:35.489Z,16.82
2018-06-15T01:03:03.903Z,16.82
2018-06-15T01:05:32.149Z,16.83
2018-06-15T01:08:13.948Z,16.85
2018-06-15T01:12:59.182Z,16.86
2018-06-15T01:15:35.421Z,16.84
2018-06-15T01:18:32.841Z,16.84
2018-06-15T01:24:10.398Z,16.85
2018-06-15T01:26:39.138Z,16.86
2018-06-15T01:29:07.780Z,16.86
2018-06-15T01:31:36.649Z,16.85
2018-06-15T01:34:05.170Z,16.84
2018-06-15T01:36:33.578Z,16.57
2018-06-15T01:39:02.418Z,16.79
2018-06-15T01:41:31.925Z,16.76
2018-06-15T01:44:00.335Z,16.75
2018-06-15T01:46:29.156Z,16.77
2018-06-15T01:48:57.287Z,16.77
2018-06-15T01:51:28.143Z,16.78
2018-06-15T01:53:59.829Z,16.77
2018-06-15T01:56:29.905Z,16.77
2018-06-15T01:58:58.503Z,16.76
2018-06-15T02:01:26.816Z,16.77
2018-06-15T02:03:55.383Z,16.77
2018-06-15T02:06:23.726Z,16.53
2018-06-15T02:08:52.565Z,16.77
2018-06-15T02:11:20.883Z,16.76
2018-06-15T02:13:49.494Z,16.76
2018-06-15T02:16:18.415Z,16.76
2018-06-15T02:18:46.716Z,16.75
2018-06-15T02:21:15.198Z,16.71
2018-06-15T02:23:44.114Z,16.70
2018-06-15T02:26:12.344Z,16.65
2018-06-15T02:28:40.806Z,16.66
2018-06-15T02:31:09.568Z,16.65
2018-06-15T02:33:37.860Z,16.62
2018-06-15T02:36:06.052Z,16.62
2018-06-15T02:38:34.572Z,16.60
2018-06-15T02:41:02.672Z,16.60
2018-06-15T02:43:31.532Z,16.58
2018-06-15T02:46:00.102Z,16.56
2018-06-15T02:48:28.535Z,16.55
2018-06-15T02:50:57.020Z,16.55
2018-06-15T02:53:25.936Z,16.54
2018-06-15T02:55:54.395Z,16.29
2018-06-15T02:58:22.559Z,16.53
2018-06-15T03:00:50.657Z,16.52
2018-06-15T03:03:19.368Z,16.51
2018-06-15T03:05:47.664Z,16.50
2018-06-15T03:08:16.580Z,16.49
2018-06-15T03:10:45.136Z,16.47
2018-06-15T03:13:13.638Z,16.44
2018-06-15T03:15:42.268Z,16.45
2018-06-15T03:18:10.464Z,16.41
2018-06-15T03:20:38.483Z,16.43
2018-06-15T03:23:06.672Z,16.42
2018-06-15T03:25:35.236Z,16.42
2018-06-15T03:28:03.619Z,16.42
2018-06-15T03:30:32.485Z,16.42
2018-06-15T03:33:01.037Z,16.44
2018-06-15T03:35:29.081Z,16.32
2018-06-15T03:37:58.060Z,16.43
2018-06-15T03:40:26.547Z,16.41
2018-06-15T03:42:54.885Z,16.45
2018-06-15T03:45:23.875Z,16.49
2018-06-15T03:47:52.266Z,16.50
2018-06-15T03:50:20.927Z,16.55
2018-06-15T03:52:49.480Z,16.59
2018-06-15T03:55:18.161Z,16.62
2018-06-15T03:57:46.511Z,16.65
2018-06-15T04:00:14.863Z,16.66
2018-06-15T04:02:43.899Z,16.71
2018-06-15T04:05:12.307Z,16.74
2018-06-15T04:07:40.556Z,16.76
2018-06-15T04:10:10.883Z,16.78
2018-06-15T04:12:42.291Z,16.82
2018-06-15T04:15:10.613Z,16.75
2018-06-15T04:17:39.515Z,16.91
2018-06-15T04:20:08.016Z,16.94
2018-06-15T04:22:36.459Z,16.97
2018-06-15T04:25:05.689Z,17.01
2018-06-15T04:27:34.319Z,17.07
2018-06-15T04:30:03.021Z,17.00
2018-06-15T04:32:31.739Z,17.17
2018-06-15T04:35:00.291Z,17.21
2018-06-15T04:37:31.962Z,17.26
2018-06-15T04:40:00.853Z,17.21
2018-06-15T04:42:29.175Z,17.36
2018-06-15T04:44:57.786Z,17.39
2018-06-15T04:47:27.401Z,17.44
2018-06-15T04:49:55.532Z,17.51
2018-06-15T04:52:23.689Z,17.58
2018-06-15T04:54:52.076Z,17.65
2018-06-15T04:57:23.821Z,17.24
2018-06-15T04:59:52.451Z,17.81
2018-06-15T05:02:20.803Z,17.87
2018-06-15T05:07:23.716Z,17.94
2018-06-15T05:09:53.305Z,17.96
2018-06-15T05:12:21.576Z,17.87
2018-06-15T05:14:50.294Z,17.98
2018-06-15T05:17:18.991Z,17.77
2018-06-15T05:19:51.863Z,18.00
2018-06-15T05:22:20.506Z,17.98
2018-06-15T05:24:49.301Z,18.07
2018-06-15T05:27:17.382Z,18.16
2018-06-15T05:29:45.974Z,18.22
2018-06-15T05:32:14.940Z,18.26
2018-06-15T05:34:43.343Z,18.30
2018-06-15T05:37:11.540Z,18.35
2018-06-15T05:39:42.379Z,18.41
2018-06-15T05:42:10.951Z,18.45
2018-06-15T05:44:41.219Z,17.62
2018-06-15T05:47:09.974Z,18.59
2018-06-15T05:49:38.141Z,18.66
2018-06-15T05:52:06.372Z,18.71
2018-06-15T05:54:35.311Z,18.77
2018-06-15T05:57:06.670Z,18.86
2018-06-15T05:59:37.680Z,18.99
2018-06-15T06:02:07.682Z,19.08
2018-06-15T06:04:36.611Z,17.41
2018-06-15T06:07:05.194Z,19.25
2018-06-15T06:09:43.840Z,19.33
2018-06-15T06:12:17.509Z,17.88
2018-06-15T06:14:56.400Z,18.97
2018-06-15T06:17:27.362Z,18.01
2018-06-15T06:20:00.554Z,19.84
2018-06-15T06:22:29.849Z,19.97
2018-06-15T06:25:00.647Z,20.07
2018-06-15T06:27:32.737Z,20.16
2018-06-15T06:30:08.418Z,20.28
2018-06-15T06:32:40.470Z,20.41
2018-06-15T06:35:14.677Z,20.21
2018-06-15T06:37:47.380Z,20.54
2018-06-15T06:40:21.330Z,20.52
2018-06-15T06:43:02.013Z,20.64
2018-06-15T06:45:30.254Z,20.72
2018-06-15T06:48:00.798Z,20.81
2018-06-15T06:50:30.450Z,20.41
2018-06-15T06:52:59.053Z,20.87
2018-06-15T06:55:27.846Z,20.87
2018-06-15T06:57:57.474Z,20.90
2018-06-15T07:00:25.539Z,21.03
2018-06-15T07:02:53.986Z,21.14
2018-06-15T07:05:23.689Z,19.74
2018-06-15T07:07:54.529Z,21.04
2018-06-15T07:10:23.229Z,21.01
2018-06-15T07:12:51.647Z,20.91
2018-06-15T07:15:19.731Z,20.89
2018-06-15T07:17:49.622Z,20.84
2018-06-15T07:20:18.422Z,20.93
2018-06-15T07:22:46.652Z,20.92
2018-06-15T07:25:14.860Z,21.30
2018-06-15T07:27:44.105Z,21.10
2018-06-15T07:30:12.292Z,21.42
2018-06-15T07:32:40.517Z,21.48
2018-06-15T07:35:10.910Z,20.35
2018-06-15T07:37:43.227Z,21.92
2018-06-15T07:40:11.968Z,22.23
2018-06-15T07:42:44.173Z,22.03
2018-06-15T07:45:12.739Z,22.74
2018-06-15T07:47:42.728Z,22.96
2018-06-15T07:50:10.909Z,23.14
2018-06-15T07:52:41.192Z,23.07
2018-06-15T07:55:09.870Z,22.86
2018-06-15T07:57:40.840Z,22.93
2018-06-15T08:00:11.245Z,23.07
2018-06-15T08:02:40.859Z,23.04
2018-06-15T08:05:09.181Z,23.56
2018-06-15T08:07:37.357Z,23.73
2018-06-15T08:10:06.501Z,23.81
2018-06-15T08:12:35.108Z,23.80
2018-06-15T08:15:05.045Z,23.78
2018-06-15T08:17:33.720Z,23.68
2018-06-15T08:20:03.187Z,23.66
2018-06-15T08:22:31.323Z,23.69
2018-06-15T08:25:00.490Z,23.73
2018-06-15T08:27:28.971Z,23.26
2018-06-15T08:29:58.383Z,23.82
2018-06-15T08:32:27.833Z,23.93
2018-06-15T08:34:55.907Z,24.18
2018-06-15T08:37:24.961Z,24.25
2018-06-15T08:39:53.067Z,24.70
2018-06-15T08:42:21.280Z,24.89
2018-06-15T08:44:49.807Z,25.16
2018-06-15T08:47:18.758Z,25.08
2018-06-15T08:49:47.093Z,24.97
2018-06-15T08:52:16.750Z,24.74
2018-06-15T08:54:45.288Z,24.52
2018-06-15T08:57:13.632Z,22.78
2018-06-15T08:59:43.184Z,24.02
2018-06-15T09:02:11.380Z,23.21
2018-06-15T09:04:40.008Z,23.64
2018-06-15T09:07:08.782Z,23.37
2018-06-15T09:09:37.836Z,23.24
2018-06-15T09:12:09.066Z,21.96
2018-06-15T09:14:38.326Z,23.32
2018-06-15T09:17:07.269Z,23.46
2018-06-15T09:19:38.618Z,22.22
2018-06-15T09:22:06.647Z,23.51
2018-06-15T09:24:37.526Z,23.57
2018-06-15T09:27:06.547Z,23.46
2018-06-15T09:29:35.919Z,23.45
2018-06-15T09:32:06.054Z,23.20
2018-06-15T09:34:34.788Z,23.51
2018-06-15T09:37:07.455Z,23.63
2018-06-15T09:39:36.585Z,23.50
2018-06-15T09:42:04.837Z,24.11
2018-06-15T09:44:33.137Z,24.51
2018-06-15T09:47:02.589Z,24.45
2018-06-15T09:49:32.881Z,25.04
2018-06-15T09:52:02.214Z,25.36
2018-06-15T09:54:30.393Z,25.67
2018-06-15T09:56:58.972Z,25.56
2018-06-15T09:59:27.716Z,25.07
2018-06-15T10:01:55.912Z,24.83
2018-06-15T10:04:24.283Z,24.85
2018-06-15T10:06:52.385Z,24.48
2018-06-15T10:09:20.585Z,24.21
2018-06-15T10:11:48.633Z,24.07
2018-06-15T10:14:17.010Z,24.36
2018-06-15T10:16:45.204Z,24.65
2018-06-15T10:19:13.426Z,24.77
2018-06-15T10:21:41.563Z,25.18
2018-06-15T10:24:09.991Z,25.66
2018-06-15T10:26:38.057Z,26.23
2018-06-15T10:29:06.345Z,26.70
2018-06-15T10:31:35.097Z,26.93
2018-06-15T10:34:03.459Z,26.59
2018-06-15T10:36:31.929Z,25.99
2018-06-15T10:39:00.311Z,25.52
2018-06-15T10:41:28.615Z,25.60
2018-06-15T10:43:57.137Z,25.83
2018-06-15T10:46:26.383Z,26.12
2018-06-15T10:48:55.095Z,26.52
2018-06-15T10:51:23.684Z,27.02
2018-06-15T10:53:51.890Z,27.30
2018-06-15T10:56:20.620Z,27.69
2018-06-15T10:58:49.376Z,27.71
2018-06-15T11:01:17.432Z,26.96
2018-06-15T11:03:45.903Z,26.58
2018-06-15T11:06:14.709Z,26.08
2018-06-15T11:08:42.840Z,25.59
2018-06-15T11:11:10.931Z,24.76
2018-06-15T11:13:40.173Z,24.70
2018-06-15T11:16:08.347Z,24.32
2018-06-15T11:18:36.471Z,23.68
2018-06-15T11:21:05.011Z,23.83
2018-06-15T11:23:33.439Z,23.65
2018-06-15T11:26:01.509Z,23.58
2018-06-15T11:28:30.050Z,23.54
2018-06-15T11:30:58.156Z,23.47
2018-06-15T11:33:26.241Z,23.45
2018-06-15T11:35:55.019Z,23.36
2018-06-15T11:38:23.333Z,23.36
2018-06-15T11:40:51.385Z,23.31
2018-06-15T11:43:19.950Z,23.26
2018-06-15T11:45:48.742Z,23.18
2018-06-15T11:48:16.880Z,23.11
2018-06-15T11:50:45.549Z,23.05
2018-06-15T11:53:13.713Z,23.04
2018-06-15T11:55:41.736Z,22.98
2018-06-15T11:58:09.859Z,22.79
2018-06-15T12:00:37.909Z,22.65
2018-06-15T12:03:05.957Z,22.52
2018-06-15T12:05:34.567Z,22.40
2018-06-15T12:08:02.909Z,22.33
2018-06-15T12:10:31.131Z,22.33
2018-06-15T12:12:59.280Z,22.35
2018-06-15T12:15:27.503Z,22.26
2018-06-15T12:17:55.568Z,22.04
2018-06-15T12:20:23.911Z,22.08
2018-06-15T12:22:52.094Z,22.12
2018-06-15T12:25:20.586Z,22.22
2018-06-15T12:27:48.737Z,22.25
2018-06-15T12:30:17.343Z,22.20
2018-06-15T12:32:45.901Z,22.16
2018-06-15T12:35:16.940Z,22.13
2018-06-15T12:37:45.197Z,22.11
2018-06-15T12:40:13.414Z,22.14
2018-06-15T12:42:41.539Z,22.12
2018-06-15T12:45:09.663Z,22.18
2018-06-15T12:47:37.778Z,22.29
2018-06-15T12:50:06.491Z,21.81
2018-06-15T12:52:35.599Z,22.29
2018-06-15T12:55:05.153Z,22.33
2018-06-15T12:57:35.995Z,22.33
2018-06-15T13:00:09.575Z,22.08
2018-06-15T13:02:38.608Z,22.27
2018-06-15T13:05:08.440Z,22.31
2018-06-15T13:07:37.561Z,22.39
2018-06-15T13:10:06.309Z,22.49
2018-06-15T13:12:35.233Z,22.41
2018-06-15T13:15:04.702Z,22.48
2018-06-15T13:17:33.011Z,22.66
2018-06-15T13:20:01.393Z,22.77
2018-06-15T13:22:29.603Z,22.92
2018-06-15T13:24:57.851Z,23.03
2018-06-15T13:27:26.733Z,23.14
2018-06-15T13:29:54.796Z,23.24
2018-06-15T13:32:23.343Z,23.31
2018-06-15T13:34:52.149Z,23.35
2018-06-15T13:37:21.248Z,23.39
2018-06-15T13:39:49.447Z,23.44
2018-06-15T13:42:17.752Z,23.39
2018-06-15T13:44:46.179Z,23.39
2018-06-15T13:47:15.737Z,23.43
2018-06-15T13:49:44.561Z,23.51
2018-06-15T13:52:13.335Z,23.63
2018-06-15T13:54:42.603Z,23.74
2018-06-15T13:57:14.687Z,23.80
2018-06-15T13:59:44.108Z,23.58
2018-06-15T14:02:16.085Z,23.46
2018-06-15T14:04:47.113Z,23.85
2018-06-15T14:07:16.683Z,24.01
2018-06-15T14:09:47.880Z,24.13
2018-06-15T14:12:17.974Z,24.28
2018-06-15T14:14:52.627Z,24.46
2018-06-15T14:17:21.393Z,24.57
2018-06-15T14:19:49.629Z,24.64
2018-06-15T14:22:18.616Z,24.68
2018-06-15T14:24:47.303Z,24.53
2018-06-15T14:27:16.310Z,24.75
2018-06-15T14:29:44.973Z,25.00
2018-06-15T14:32:13.606Z,25.05
2018-06-15T14:34:41.780Z,25.04
2018-06-15T14:37:10.215Z,25.00
2018-06-15T14:39:39.195Z,24.82
2018-06-15T14:42:08.690Z,24.64
2018-06-15T14:44:37.084Z,24.77
2018-06-15T14:47:05.325Z,24.93
2018-06-15T14:49:33.407Z,24.92
2018-06-15T14:52:01.830Z,24.95
2018-06-15T14:54:29.964Z,24.77
2018-06-15T14:56:57.994Z,24.88
2018-06-15T14:59:26.378Z,24.87
2018-06-15T15:01:55.543Z,24.91
2018-06-15T15:04:23.869Z,24.81
2018-06-15T15:06:52.436Z,24.67
2018-06-15T15:09:20.573Z,24.70
2018-06-15T15:11:48.780Z,24.82
2018-06-15T15:14:17.247Z,24.86
2018-06-15T15:16:45.490Z,24.93
2018-06-15T15:19:13.758Z,24.98
2018-06-15T15:21:42.276Z,25.04
2018-06-15T15:24:10.701Z,25.03
2018-06-15T15:26:39.124Z,24.99
2018-06-15T15:29:08.155Z,24.95
2018-06-15T15:31:37.039Z,24.91
2018-06-15T15:34:05.319Z,24.90
2018-06-15T15:36:33.722Z,24.88
2018-06-15T15:39:09.496Z,24.84
2018-06-15T15:41:38.800Z,24.79
2018-06-15T15:44:07.732Z,24.55
2018-06-15T15:46:36.360Z,24.70
2018-06-15T15:49:06.473Z,24.63
2018-06-15T15:51:35.297Z,24.74
2018-06-15T15:54:04.016Z,24.53
2018-06-15T15:56:32.839Z,24.37
2018-06-15T15:59:01.421Z,24.55
2018-06-15T16:01:32.005Z,24.57
2018-06-15T16:04:00.622Z,24.56
2018-06-15T16:06:31.881Z,24.63
2018-06-15T16:09:00.770Z,24.57
2018-06-15T16:11:29.238Z,24.54
2018-06-15T16:13:57.295Z,24.37
2018-06-15T16:16:25.359Z,24.37
2018-06-15T16:18:53.586Z,24.32
2018-06-15T16:21:22.543Z,24.17
2018-06-15T16:23:57.414Z,24.23
2018-06-15T16:26:27.138Z,24.21
2018-06-15T16:28:55.701Z,24.02
2018-06-15T16:31:23.969Z,24.06
2018-06-15T16:33:52.495Z,23.89
2018-06-15T16:36:20.886Z,23.87
2018-06-15T16:38:49.643Z,23.84
2018-06-15T16:41:18.245Z,23.86
2018-06-15T16:43:46.738Z,23.78
2018-06-15T16:46:15.450Z,23.92
2018-06-15T16:48:44.198Z,23.92
2018-06-15T16:51:12.635Z,23.92
2018-06-15T16:53:40.939Z,23.90
2018-06-15T16:56:09.125Z,23.35
2018-06-15T16:58:37.348Z,23.80
2018-06-15T17:01:05.500Z,23.77
2018-06-15T17:03:33.668Z,23.71
2018-06-15T17:06:02.225Z,23.68
2018-06-15T17:08:30.467Z,23.66
2018-06-15T17:10:58.561Z,23.38
2018-06-15T17:13:26.761Z,23.46
2018-06-15T17:15:54.985Z,23.28
2018-06-15T17:18:23.133Z,23.26
2018-06-15T17:20:51.781Z,23.42
2018-06-15T17:23:23.429Z,23.37
2018-06-15T17:25:53.793Z,23.36
2018-06-15T17:28:22.500Z,23.29
2018-06-15T17:30:52.084Z,23.14
2018-06-15T17:33:20.700Z,23.10
2018-06-15T17:35:51.195Z,23.13
2018-06-15T17:38:22.099Z,23.11
2018-06-15T17:40:50.414Z,22.95
2018-06-15T17:43:18.818Z,23.13
2018-06-15T17:45:46.957Z,23.13
2018-06-15T17:48:15.411Z,23.13
2018-06-15T17:50:44.089Z,23.13
2018-06-15T17:53:12.512Z,23.12
2018-06-15T17:55:40.802Z,23.07
2018-06-15T17:58:10.071Z,23.01
2018-06-15T18:00:38.766Z,22.98
2018-06-15T18:03:07.642Z,22.75
2018-06-15T18:05:36.248Z,22.92
2018-06-15T18:08:04.748Z,22.87
2018-06-15T18:10:34.737Z,22.80
2018-06-15T18:13:03.751Z,22.74
2018-06-15T18:15:32.105Z,22.66
2018-06-15T18:18:00.261Z,22.63
2018-06-15T18:20:29.582Z,22.60
2018-06-15T18:22:57.697Z,22.59
2018-06-15T18:25:26.266Z,22.56
2018-06-15T18:27:55.291Z,22.54
2018-06-15T18:30:23.680Z,22.53
2018-06-15T18:32:51.807Z,22.49
2018-06-15T18:35:20.939Z,22.48
2018-06-15T18:37:50.144Z,22.47
2018-06-15T18:40:19.752Z,22.44
2018-06-15T18:42:50.932Z,22.41
2018-06-15T18:45:20.081Z,21.98
2018-06-15T18:47:49.358Z,22.32
2018-06-15T18:50:21.615Z,22.29
2018-06-15T18:52:50.046Z,22.27
2018-06-15T18:55:19.084Z,22.23
2018-06-15T18:57:47.889Z,22.20
2018-06-15T19:00:16.309Z,22.17
2018-06-15T19:02:45.520Z,22.05
2018-06-15T19:05:26.130Z,22.04
2018-06-15T19:07:55.451Z,22.13
2018-06-15T19:10:24.440Z,21.85
2018-06-15T19:12:52.836Z,22.00
2018-06-15T19:15:22.208Z,21.78
2018-06-15T19:17:51.129Z,22.06
2018-06-15T19:20:19.878Z,21.94
2018-06-15T19:22:48.771Z,22.01
2018-06-15T19:25:17.118Z,21.96
2018-06-15T19:27:46.144Z,21.92
2018-06-15T19:30:14.884Z,21.85
2018-06-15T19:32:43.318Z,21.68
2018-06-15T19:35:11.913Z,21.61
2018-06-15T19:37:59.319Z,21.36
2018-06-15T19:40:32.171Z,21.53
2018-06-15T19:43:02.334Z,21.61
2018-06-15T19:45:35.176Z,21.50
2018-06-15T19:48:04.855Z,21.36
2018-06-15T19:50:40.688Z,21.49
2018-06-15T19:53:18.343Z,21.26
2018-06-15T19:55:46.913Z,21.32
2018-06-15T19:58:25.459Z,20.97
2018-06-15T20:00:56.669Z,21.42
2018-06-15T20:03:25.182Z,21.41
2018-06-15T20:05:54.363Z,21.38
2018-06-15T20:08:27.228Z,21.09
2018-06-15T20:10:58.755Z,21.17
2018-06-15T20:13:28.507Z,21.32
2018-06-15T20:15:58.553Z,20.96
2018-06-15T20:18:27.401Z,21.19
2018-06-15T20:21:02.599Z,21.17
2018-06-15T20:23:33.732Z,21.16
2018-06-15T20:26:07.405Z,20.38
2018-06-15T20:28:39.293Z,21.01
2018-06-15T20:31:07.806Z,21.01
2018-06-15T20:33:41.523Z,21.10
2018-06-15T20:36:13.957Z,20.80
2018-06-15T20:38:50.602Z,20.99
2018-06-15T20:41:20.757Z,20.89
2018-06-15T20:43:57.368Z,20.87
2018-06-15T20:46:27.239Z,20.83
2018-06-15T20:48:56.106Z,20.96
2018-06-15T20:51:25.105Z,20.74
2018-06-15T20:53:54.097Z,20.82
2018-06-15T20:56:26.520Z,20.75
2018-06-15T20:58:57.957Z,20.82
2018-06-15T21:01:31.588Z,20.70
2018-06-15T21:04:09.475Z,20.76
2018-06-15T21:06:38.592Z,20.45
2018-06-15T21:09:09.189Z,20.71
2018-06-15T21:11:44.304Z,20.69
2018-06-15T21:14:13.943Z,20.58
2018-06-15T21:16:43.853Z,20.49
2018-06-15T21:19:21.733Z,20.40
2018-06-15T21:21:50.793Z,20.61
2018-06-15T21:24:19.435Z,20.60
2018-06-15T21:26:51.675Z,20.20
2018-06-15T21:29:20.081Z,20.30
2018-06-15T21:31:53.321Z,20.36
2018-06-15T21:34:22.098Z,20.53
2018-06-15T21:36:52.651Z,20.06
2018-06-15T21:39:23.603Z,20.45
2018-06-15T21:41:56.501Z,20.54
2018-06-15T21:44:28.888Z,20.53
2018-06-15T21:46:57.517Z,20.43
2018-06-15T21:49:27.232Z,20.32
2018-06-15T21:51:56.193Z,20.44
2018-06-15T21:54:30.467Z,20.40
2018-06-15T21:57:00.116Z,20.48
2018-06-15T21:59:30.044Z,20.17
2018-06-15T22:01:59.456Z,20.28
2018-06-15T22:04:31.905Z,20.44
2018-06-15T22:07:01.525Z,20.41
2018-06-15T22:09:32.930Z,20.26
2018-06-15T22:12:02.838Z,20.26
2018-06-15T22:14:31.164Z,20.23
2018-06-15T22:16:59.489Z,20.33
2018-06-15T22:19:30.670Z,20.12
2018-06-15T22:21:59.495Z,20.21
2018-06-15T22:24:28.002Z,20.28
2018-06-15T22:26:56.561Z,20.24
2018-06-15T22:29:26.901Z,20.21
2018-06-15T22:31:55.202Z,20.19
2018-06-15T22:34:23.532Z,20.16
2018-06-15T22:36:51.696Z,20.17
2018-06-15T22:39:20.544Z,19.95
2018-06-15T22:41:49.180Z,20.15
2018-06-15T22:44:17.681Z,20.14
2018-06-15T22:46:46.945Z,19.93
2018-06-15T22:49:15.676Z,19.83
2018-06-15T22:51:44.010Z,20.13
2018-06-15T22:54:12.534Z,20.12
2018-06-15T22:56:40.895Z,20.11
2018-06-15T22:59:09.032Z,20.10
2018-06-15T23:01:37.360Z,20.08
2018-06-15T23:04:06.233Z,19.86
2018-06-15T23:06:35.061Z,19.94
2018-06-15T23:09:03.992Z,19.91
2018-06-15T23:11:32.412Z,19.99
2018-06-15T23:14:00.530Z,19.99
2018-06-15T23:16:28.784Z,19.88
2018-06-15T23:18:57.717Z,19.97
2018-06-15T23:21:26.435Z,19.93
2018-06-15T23:23:54.704Z,19.91
2018-06-15T23:26:23.068Z,19.88
2018-06-15T23:28:51.146Z,19.87
2018-06-15T23:31:19.424Z,19.86
2018-06-15T23:33:48.043Z,19.85
2018-06-15T23:36:16.101Z,19.84
2018-06-15T23:38:44.783Z,19.84
2018-06-15T23:41:13.793Z,19.84
2018-06-15T23:43:41.872Z,19.82
2018-06-15T23:46:09.962Z,19.80
2018-06-15T23:48:38.772Z,19.78
2018-06-15T23:51:07.529Z,19.76
2018-06-15T23:53:36.148Z,19.73
2018-06-15T23:56:04.397Z,19.72
2018-06-15T23:58:32.913Z,19.71
